This is the latest recevied weather packets stored in our database for station/object K4OAM-13. If no packets are shown the sender has not sent any weather packets the latest 10 day(s).
| Time | Temp. | Humidity | Pressure | Rain* | Wind** | Luminosity | Snow |
|---|---|---|---|---|---|---|---|
| 1777827236 | 10.56° C | 81% | 1007 hPa | - | - | - | - |
| 1777826320 | 10.56° C | 83% | 1007.4 hPa | - | - | - | - |
| 1777823020 | 10° C | 87% | 1007.8 hPa | - | - | - | - |
| 1777822120 | 10° C | 89% | 1007.7 hPa | - | - | - | - |
| 1777820336 | 8.89° C | 97% | 1008.4 hPa | - | - | - | - |
| 1777816720 | 7.22° C | 10% | - | - | - | - | - |
| 1777814620 | 6.11° C | 10% | - | - | - | - | - |
| 1777813720 | 5° C | 10% | - | - | - | - | - |
| 1777813420 | 5° C | 10% | - | - | - | - | - |
| 1777810720 | 2.78° C | 96% | 1011.7 hPa | - | - | - | - |
| 1777810120 | 2.22° C | 99% | 1011.7 hPa | - | - | - | - |
| 1777809820 | 1.67° C | 99% | 1011.8 hPa | - | - | - | - |
| 1777807420 | 1.67° C | 96% | 1012.2 hPa | - | - | - | - |
| 1777805620 | 0.56° C | 97% | 1012.4 hPa | - | - | - | - |
| 1777805352 | 1.11° C | 96% | 1012.5 hPa | - | - | - | - |
| 1777804420 | 1.11° C | 94% | 1012.7 hPa | - | - | - | - |
| 1777803820 | 0.56° C | 95% | 1012.9 hPa | - | - | - | - |
| 1777801136 | 0.56° C | 93% | 1013.8 hPa | - | - | - | - |
| 1777800820 | 0.56° C | 92% | 1014 hPa | - | - | - | - |
| 1777794520 | -0.56° C | 87% | 1015.8 hPa | - | - | - | - |
| 1777793620 | -1.67° C | 88% | 1016.5 hPa | - | - | - | - |
| 1777791853 | -1.67° C | 87% | 1016.9 hPa | - | - | - | - |
| 1777791520 | -1.11° C | 87% | 1017 hPa | - | - | - | - |
| 1777791220 | -1.11° C | 88% | 1017 hPa | - | - | - | - |
| 1777789436 | -1.11° C | 85% | 1017.3 hPa | - | - | - | - |
* Rain since midnight (hover to see other rain measurements)
** Current wind speed in m/s (hover to see current wind gust speed)